Shetland, United Kingdom
Current Conditions -  °F | °C
As of 3:50 AM on Wednesday 28 Jan 2015 (Local Time) from EGPB Reporting Station
Haze Haze  
Wind Chill: 38°   Ceiling: Unl
Heat Index: 46°   Visibility: 2.3mi
Dew Point: 45°   Wind: 25mph
Humidity: 93%   Direction: 220°SW
Pressure: 29.06"   Gusts: NA
Location:  60.15°N, 1.14°W
Report Text: EGPB 280350Z AUTO 22022KT 3800 BR FEW007/// 08/07 Q0984
Loading
Personal Weather Stations






























Interactive Weather Map New forecast layout! Learn more

10-Day Weather Forecast

Advertisements
Track Severe Weather on mobile